Time;durP1;ratioP1;P1;durP2;ratioP2;P2;SDS_P1;SDS_P2;PMS_P1;PMS_P2;Temp;Humidity;BMP_temperature;BMP_pressure;BME280_temperature;BME280_humidity;BME280_pressure;Samples;Min_cycle;Max_cycle;Signal;HPM_P1;HPM_P2
2021/04/22 00:01:21;;;;;;;15.75;7.15;;;9.80;79.20;;;;;;5009276;28;20045;-79
2021/04/22 00:03:47;;;;;;;17.42;7.68;;;9.70;80.10;;;;;;5012352;28;20053;-79
2021/04/22 00:06:12;;;;;;;13.32;7.28;;;9.70;81.10;;;;;;5011996;28;20035;-80
2021/04/22 00:08:38;;;;;;;19.17;7.35;;;9.70;81.60;;;;;;5010055;28;20046;-81
2021/04/22 00:11:03;;;;;;;19.73;7.57;;;9.70;81.10;;;;;;5004946;28;20038;-80
2021/04/22 00:13:29;;;;;;;13.77;8.07;;;9.70;82.10;;;;;;5011128;28;20034;-80
2021/04/22 00:15:55;;;;;;;16.90;7.88;;;9.70;82.20;;;;;;5009720;28;20035;-79
2021/04/22 00:18:21;;;;;;;18.30;7.82;;;9.70;82.20;;;;;;5010692;28;20404;-79
2021/04/22 00:20:47;;;;;;;20.77;7.68;;;9.80;82.70;;;;;;5008165;28;20168;-79
2021/04/22 00:23:15;;;;;;;14.35;7.75;;;9.90;82.90;;;;;;5004696;28;20030;-80
2021/04/22 00:25:41;;;;;;;18.58;7.65;;;9.90;82.60;;;;;;5005601;28;20125;-79
2021/04/22 00:28:07;;;;;;;13.20;7.43;;;10.00;82.20;;;;;;5012641;28;20042;-81
2021/04/22 00:30:34;;;;;;;16.05;8.45;;;10.10;81.70;;;;;;5013820;28;20038;-81
2021/04/22 00:33:04;;;;;;;20.77;9.70;;;10.30;80.10;;;;;;5016552;28;20030;-81
2021/04/22 00:35:30;;;;;;;18.45;9.00;;;10.40;79.40;;;;;;5019833;28;20102;-83
2021/04/22 00:37:55;;;;;;;19.65;8.40;;;10.50;79.00;;;;;;5019420;28;20026;-84
2021/04/22 00:40:24;;;;;;;18.67;9.38;;;10.60;78.70;;;;;;5023027;28;20034;-84
2021/04/22 00:42:50;;;;;;;18.98;9.52;;;10.60;78.90;;;;;;5024910;28;20038;-83
2021/04/22 00:45:17;;;;;;;20.13;9.80;;;10.80;78.20;;;;;;5019573;28;20042;-83
2021/04/22 00:47:43;;;;;;;26.45;9.52;;;10.90;76.00;;;;;;5018891;28;20053;-83
2021/04/22 00:50:13;;;;;;;18.65;10.13;;;11.00;76.40;;;;;;5028670;28;20058;-84
2021/04/22 00:52:39;;;;;;;19.73;10.30;;;11.20;75.30;;;;;;5011646;28;20084;-84
2021/04/22 00:55:06;;;;;;;21.48;11.05;;;11.20;77.30;;;;;;5011929;28;20046;-85
2021/04/22 00:57:31;;;;;;;22.60;11.48;;;11.30;82.00;;;;;;5016549;28;20097;-84
2021/04/22 00:59:57;;;;;;;25.30;13.52;;;11.20;88.80;;;;;;5009275;28;20058;-85
2021/04/22 01:02:23;;;;;;;26.60;14.30;;;11.10;93.20;;;;;;5007087;28;20046;-84
2021/04/22 01:04:49;;;;;;;29.33;14.30;;;11.10;95.80;;;;;;5012596;28;20058;-84
2021/04/22 01:07:15;;;;;;;31.60;16.17;;;11.00;98.60;;;;;;5011861;28;20034;-83
2021/04/22 01:09:41;;;;;;;27.88;16.30;;;10.80;99.90;;;;;;5011074;28;20041;-82
2021/04/22 01:12:08;;;;;;;31.75;16.70;;;10.80;99.90;;;;;;5011065;28;20062;-82
2021/04/22 01:14:34;;;;;;;30.42;17.38;;;10.70;99.90;;;;;;5009896;28;20057;-81
2021/04/22 01:17:00;;;;;;;40.95;17.83;;;10.60;99.90;;;;;;5011518;28;20045;-81
2021/04/22 01:19:26;;;;;;;32.63;17.00;;;10.60;99.90;;;;;;5007432;28;20095;-82
2021/04/22 01:21:53;;;;;;;35.72;18.80;;;10.50;99.90;;;;;;5015883;28;20156;-83
2021/04/22 01:24:19;;;;;;;40.25;19.00;;;10.50;99.90;;;;;;5006902;28;20033;-83
2021/04/22 01:26:45;;;;;;;36.90;18.95;;;10.40;99.90;;;;;;5012055;28;20050;-83
2021/04/22 01:29:11;;;;;;;41.88;19.58;;;10.30;99.90;;;;;;5008776;28;20038;-83
2021/04/22 01:31:36;;;;;;;32.45;19.27;;;10.30;99.90;;;;;;5021470;28;20249;-83
2021/04/22 01:34:08;;;;;;;38.70;21.20;;;10.30;99.90;;;;;;5017047;28;20039;-83
2021/04/22 01:36:35;;;;;;;41.40;21.17;;;10.20;99.90;;;;;;5008992;28;20041;-83
2021/04/22 01:39:02;;;;;;;42.45;19.55;;;10.20;99.90;;;;;;5010359;28;20532;-83
2021/04/22 01:41:29;;;;;;;41.55;21.15;;;10.20;99.90;;;;;;5017622;28;20045;-83
2021/04/22 01:43:55;;;;;;;37.10;21.38;;;10.10;99.90;;;;;;5007614;28;20089;-83
2021/04/22 01:46:21;;;;;;;40.22;21.73;;;10.10;99.90;;;;;;5010497;28;20038;-83
2021/04/22 01:48:46;;;;;;;39.03;20.00;;;10.10;99.90;;;;;;5011001;28;20169;-83
2021/04/22 01:51:12;;;;;;;38.75;19.35;;;10.10;99.90;;;;;;5010083;28;20131;-83
2021/04/22 01:53:37;;;;;;;35.17;19.80;;;10.10;99.90;;;;;;5010831;28;20042;-82
2021/04/22 01:56:03;;;;;;;38.60;21.88;;;10.10;99.90;;;;;;5010241;28;20030;-82
2021/04/22 01:58:29;;;;;;;37.00;19.55;;;10.00;99.90;;;;;;5019293;28;20050;-83
2021/04/22 02:00:56;;;;;;;37.90;21.60;;;10.10;99.90;;;;;;5020683;28;20045;-83
2021/04/22 02:03:23;;;;;;;41.13;22.40;;;10.10;99.90;;;;;;5020480;28;20030;-82
2021/04/22 02:05:49;;;;;;;37.58;21.80;;;10.10;99.90;;;;;;5021494;28;20058;-82
2021/04/22 02:08:15;;;;;;;44.75;24.10;;;10.10;99.90;;;;;;5016698;28;20042;-82
2021/04/22 02:10:43;;;;;;;45.63;23.63;;;10.10;99.90;;;;;;5015091;28;20105;-83
2021/04/22 02:13:11;;;;;;;41.38;23.13;;;10.10;99.90;;;;;;5012905;28;20588;-83
2021/04/22 02:15:37;;;;;;;46.00;25.02;;;10.10;99.90;;;;;;5012533;28;20030;-83
2021/04/22 02:18:03;;;;;;;44.67;23.48;;;10.10;99.90;;;;;;5011852;28;20053;-83
2021/04/22 02:20:29;;;;;;;47.55;24.58;;;10.10;99.90;;;;;;5012460;28;20041;-83
2021/04/22 02:22:55;;;;;;;46.67;25.30;;;10.00;99.90;;;;;;5011639;28;20030;-83
2021/04/22 02:25:23;;;;;;;45.53;25.63;;;10.00;99.90;;;;;;5010653;28;20046;-83
2021/04/22 02:27:50;;;;;;;48.03;25.75;;;10.00;99.90;;;;;;5016128;28;20046;-83
2021/04/22 02:30:22;;;;;;;47.78;26.05;;;9.90;99.90;;;;;;5012492;28;20040;-83
2021/04/22 02:32:48;;;;;;;53.10;27.02;;;9.90;99.90;;;;;;5016184;28;20084;-83
2021/04/22 02:35:18;;;;;;;55.42;27.75;;;9.80;99.90;;;;;;5010673;28;20429;-84
2021/04/22 02:37:44;;;;;;;53.97;28.15;;;9.70;99.90;;;;;;5015187;28;20056;-84
2021/04/22 02:40:14;;;;;;;56.05;29.00;;;9.70;99.90;;;;;;5013947;28;20052;-84
2021/04/22 02:42:40;;;;;;;53.50;27.75;;;9.70;99.90;;;;;;5009530;28;20042;-83
2021/04/22 02:45:20;;;;;;;54.15;29.52;;;9.80;99.90;;;;;;5009039;28;20035;-83
2021/04/22 02:47:46;;;;;;;53.53;28.80;;;9.70;99.90;;;;;;5012375;28;20524;-84
2021/04/22 02:50:17;;;;;;;50.25;28.17;;;9.70;99.90;;;;;;5011553;28;20046;-83
2021/04/22 02:52:42;;;;;;;55.80;27.80;;;9.70;99.90;;;;;;5009406;28;20060;-83
2021/04/22 02:55:08;;;;;;;54.85;28.70;;;9.70;99.90;;;;;;5013619;28;20038;-83
2021/04/22 02:57:34;;;;;;;54.20;30.50;;;9.70;99.90;;;;;;5008031;28;20042;-83
2021/04/22 03:00:00;;;;;;;61.83;32.08;;;9.70;99.90;;;;;;5012117;28;20081;-84
2021/04/22 03:02:25;;;;;;;54.63;30.48;;;9.70;99.90;;;;;;5016361;28;20041;-84
2021/04/22 03:04:51;;;;;;;51.88;30.52;;;9.70;99.90;;;;;;5029479;28;20418;-83
2021/04/22 03:07:16;;;;;;;52.95;30.02;;;9.70;99.90;;;;;;5011390;28;20038;-84
2021/04/22 03:09:42;;;;;;;59.15;31.10;;;9.70;99.90;;;;;;5014629;28;20616;-84
2021/04/22 03:12:08;;;;;;;54.42;30.80;;;9.70;99.90;;;;;;5018411;28;20057;-83
2021/04/22 03:14:34;;;;;;;62.05;30.10;;;9.70;99.90;;;;;;5013005;28;20448;-81
2021/04/22 03:17:00;;;;;;;51.92;29.02;;;9.70;99.90;;;;;;5011131;28;20311;-81
2021/04/22 03:19:26;;;;;;;54.30;29.00;;;9.80;99.90;;;;;;5010271;28;20468;-82
2021/04/22 03:21:51;;;;;;;61.33;31.45;;;9.70;99.90;;;;;;5013726;28;20045;-80
2021/04/22 03:24:17;;;;;;;53.65;28.67;;;9.70;99.90;;;;;;5014913;28;20034;-81
2021/04/22 03:26:43;;;;;;;53.55;28.30;;;9.70;99.90;;;;;;5012107;28;20041;-80
2021/04/22 03:29:08;;;;;;;57.13;29.83;;;9.70;99.90;;;;;;5011930;28;20043;-80
2021/04/22 03:31:34;;;;;;;56.05;29.50;;;9.70;99.90;;;;;;5014472;28;20038;-81
2021/04/22 03:34:00;;;;;;;49.03;27.75;;;9.80;99.90;;;;;;5008534;28;20046;-82
2021/04/22 03:36:27;;;;;;;46.53;26.05;;;9.70;99.90;;;;;;5017499;28;20077;-79
2021/04/22 03:38:54;;;;;;;47.75;26.23;;;9.70;99.90;;;;;;5013091;28;20046;-81
2021/04/22 03:41:20;;;;;;;42.72;24.42;;;9.70;99.90;;;;;;5014965;28;20061;-82
2021/04/22 03:43:46;;;;;;;46.47;24.05;;;9.80;99.90;;;;;;5013643;28;20045;-82
2021/04/22 03:46:11;;;;;;;41.53;23.30;;;9.70;99.90;;;;;;5013200;28;20497;-79
2021/04/22 03:48:37;;;;;;;48.10;24.45;;;9.70;99.90;;;;;;5014564;28;20049;-79
2021/04/22 03:51:02;;;;;;;44.00;23.00;;;9.60;99.90;;;;;;5008679;28;20049;-80
2021/04/22 03:53:28;;;;;;;48.30;23.38;;;9.60;99.90;;;;;;5030957;28;20058;-78
2021/04/22 03:55:53;;;;;;;42.83;23.48;;;9.70;99.90;;;;;;5010237;28;20057;-80
2021/04/22 03:58:19;;;;;;;47.17;22.85;;;9.60;99.90;;;;;;5013770;28;20045;-80
2021/04/22 04:00:45;;;;;;;46.67;23.52;;;9.60;99.90;;;;;;5018484;28;20045;-78
2021/04/22 04:03:10;;;;;;;49.55;23.35;;;9.50;99.90;;;;;;5032901;28;20030;-81
2021/04/22 04:05:36;;;;;;;43.83;23.75;;;9.40;99.90;;;;;;5014666;28;20039;-81
2021/04/22 04:08:02;;;;;;;45.20;23.40;;;9.40;99.90;;;;;;5014296;28;20117;-78
2021/04/22 04:10:27;;;;;;;41.35;22.75;;;9.30;99.90;;;;;;5014998;28;20064;-81
2021/04/22 04:12:53;;;;;;;47.30;23.08;;;9.30;99.90;;;;;;5009981;28;20866;-80
2021/04/22 04:15:18;;;;;;;42.95;23.33;;;9.30;99.90;;;;;;5012441;28;20030;-80
2021/04/22 04:17:44;;;;;;;37.10;21.05;;;9.20;99.90;;;;;;5012876;28;20054;-81
2021/04/22 04:20:12;;;;;;;43.38;21.38;;;9.10;99.90;;;;;;5011970;28;20088;-80
2021/04/22 04:22:38;;;;;;;45.00;22.23;;;9.10;99.90;;;;;;5010300;28;20069;-78
2021/04/22 04:25:05;;;;;;;38.38;21.95;;;9.00;99.90;;;;;;5011941;28;20041;-79
2021/04/22 04:27:30;;;;;;;46.10;22.27;;;8.90;99.90;;;;;;5010284;28;20045;-81
2021/04/22 04:29:56;;;;;;;43.13;21.52;;;8.90;99.90;;;;;;5014328;28;20034;-78
2021/04/22 04:32:22;;;;;;;45.50;22.65;;;8.90;99.90;;;;;;5015604;28;20034;-82
2021/04/22 04:34:47;;;;;;;39.08;22.38;;;8.80;99.90;;;;;;5012168;28;20042;-82
2021/04/22 04:37:13;;;;;;;38.30;21.50;;;8.80;99.90;;;;;;5001045;28;20042;-80
2021/04/22 04:39:39;;;;;;;42.10;24.30;;;8.80;99.90;;;;;;5013421;28;20101;-81
2021/04/22 04:42:05;;;;;;;43.75;21.98;;;8.70;99.90;;;;;;5023306;28;20018;-81
2021/04/22 04:44:30;;;;;;;45.50;22.52;;;8.70;99.90;;;;;;5022503;28;20049;-80
2021/04/22 04:46:56;;;;;;;42.65;22.33;;;8.60;99.90;;;;;;5017693;28;20141;-85
2021/04/22 04:49:22;;;;;;;42.08;22.35;;;8.70;99.90;;;;;;5019299;28;20109;-81
2021/04/22 04:51:48;;;;;;;40.33;22.15;;;8.60;99.90;;;;;;5018681;28;20308;-83
2021/04/22 04:54:14;;;;;;;38.17;22.65;;;8.60;99.90;;;;;;5020985;28;20038;-78
2021/04/22 04:56:39;;;;;;;42.10;22.17;;;8.60;99.90;;;;;;5018698;28;20049;-78
2021/04/22 04:59:05;;;;;;;40.20;22.08;;;8.60;99.90;;;;;;5038235;28;20026;-84
2021/04/22 05:01:30;;;;;;;41.95;21.75;;;8.60;99.90;;;;;;5012361;28;20139;-81
2021/04/22 05:03:56;;;;;;;40.85;22.00;;;8.60;99.90;;;;;;5020118;28;20049;-79
2021/04/22 05:06:21;;;;;;;42.17;21.65;;;8.60;99.90;;;;;;5020216;28;20044;-80
2021/04/22 05:08:47;;;;;;;47.97;20.88;;;8.60;99.90;;;;;;5010192;28;20123;-81
2021/04/22 05:11:12;;;;;;;44.67;20.63;;;8.60;99.90;;;;;;5014812;28;20069;-80
2021/04/22 05:13:38;;;;;;;40.45;20.52;;;8.70;99.90;;;;;;5005088;28;20041;-76
2021/04/22 05:16:04;;;;;;;37.72;21.60;;;8.70;99.90;;;;;;4999628;28;20049;-75
2021/04/22 05:18:29;;;;;;;45.60;21.55;;;8.70;99.90;;;;;;5001592;28;20030;-75
2021/04/22 05:20:55;;;;;;;43.33;21.55;;;8.80;99.90;;;;;;5006113;28;20517;-78
2021/04/22 05:23:21;;;;;;;46.33;20.67;;;8.90;99.90;;;;;;5001813;28;20038;-78
2021/04/22 05:25:48;;;;;;;34.67;19.05;;;8.90;99.90;;;;;;5012021;28;20031;-78
2021/04/22 05:28:15;;;;;;;48.22;20.80;;;9.00;99.90;;;;;;5003883;28;20073;-77
2021/04/22 05:30:41;;;;;;;39.42;20.85;;;9.10;99.90;;;;;;5007075;28;20737;-77
2021/04/22 05:33:10;;;;;;;49.17;20.60;;;9.20;99.90;;;;;;5001668;28;20034;-77
2021/04/22 05:35:36;;;;;;;38.25;19.98;;;9.30;99.90;;;;;;4998896;28;20636;-77
2021/04/22 05:38:02;;;;;;;35.75;19.70;;;9.30;99.90;;;;;;5012559;28;20037;-78
2021/04/22 05:40:28;;;;;;;38.13;19.77;;;9.30;99.90;;;;;;5014223;28;21529;-78
2021/04/22 05:42:53;;;;;;;35.97;20.40;;;9.30;99.90;;;;;;5009334;28;20102;-78
2021/04/22 05:45:19;;;;;;;40.83;20.73;;;9.40;99.90;;;;;;5005651;28;20034;-77
2021/04/22 05:47:47;;;;;;;50.63;21.52;;;9.40;99.90;;;;;;5001350;28;20040;-78
2021/04/22 05:50:14;;;;;;;40.42;20.58;;;9.40;99.90;;;;;;4998436;28;20121;-79
2021/04/22 05:52:41;;;;;;;36.40;19.35;;;9.50;99.90;;;;;;4997936;28;20775;-81
2021/04/22 05:55:08;;;;;;;37.85;20.42;;;9.50;99.90;;;;;;4998675;28;20037;-81
2021/04/22 05:57:34;;;;;;;36.67;19.88;;;9.60;99.90;;;;;;4999409;28;20069;-80
2021/04/22 06:00:00;;;;;;;36.80;19.67;;;9.60;99.90;;;;;;5006770;28;20903;-82
2021/04/22 06:02:26;;;;;;;39.63;21.08;;;9.60;99.90;;;;;;5003120;28;20093;-78
2021/04/22 06:04:51;;;;;;;37.95;18.60;;;9.60;99.90;;;;;;5023041;28;20039;-81
2021/04/22 06:07:17;;;;;;;42.60;19.83;;;9.70;99.90;;;;;;5010093;28;20033;-81
2021/04/22 06:09:43;;;;;;;38.33;19.98;;;9.70;99.90;;;;;;5013744;28;20038;-83
2021/04/22 06:12:09;;;;;;;42.22;19.88;;;9.60;99.90;;;;;;5015714;28;20121;-82
2021/04/22 06:14:34;;;;;;;37.83;20.67;;;9.70;99.90;;;;;;5015671;28;20042;-82
2021/04/22 06:17:00;;;;;;;38.45;19.55;;;9.60;99.90;;;;;;5006916;28;20066;-83
2021/04/22 06:19:26;;;;;;;37.58;19.73;;;9.60;99.90;;;;;;5008334;28;20042;-81
2021/04/22 06:21:52;;;;;;;39.67;19.08;;;9.70;99.90;;;;;;5015868;28;20042;-81
2021/04/22 06:24:17;;;;;;;46.08;21.52;;;9.70;99.90;;;;;;5009356;28;20443;-82
2021/04/22 06:26:44;;;;;;;36.78;20.58;;;9.80;99.90;;;;;;5008751;28;20041;-82
2021/04/22 06:29:10;;;;;;;37.00;19.77;;;9.80;99.90;;;;;;5010987;28;20034;-82
2021/04/22 06:31:36;;;;;;;39.03;19.67;;;9.80;99.90;;;;;;5005013;28;20190;-81
2021/04/22 06:34:02;;;;;;;33.50;19.05;;;9.80;99.90;;;;;;5008018;28;20134;-81
2021/04/22 06:36:28;;;;;;;42.85;21.95;;;9.80;99.90;;;;;;5005734;28;20076;-80
2021/04/22 06:38:54;;;;;;;36.50;19.38;;;9.80;99.90;;;;;;5006180;28;20057;-80
2021/04/22 06:41:19;;;;;;;43.95;19.67;;;9.80;99.90;;;;;;5008140;28;20034;-82
2021/04/22 06:43:45;;;;;;;35.72;18.25;;;9.80;99.90;;;;;;5012369;28;20037;-80
2021/04/22 06:46:11;;;;;;;41.40;20.63;;;9.90;99.90;;;;;;5006366;28;20521;-79
2021/04/22 06:48:37;;;;;;;34.17;18.67;;;10.00;99.90;;;;;;5008638;28;20509;-80
2021/04/22 06:51:04;;;;;;;34.72;16.67;;;10.00;99.90;;;;;;5015384;28;20046;-80
2021/04/22 06:53:29;;;;;;;35.33;15.90;;;10.00;99.90;;;;;;5013129;28;20038;-81
2021/04/22 06:55:55;;;;;;;38.85;16.75;;;10.00;99.90;;;;;;5008910;28;20391;-80
2021/04/22 06:58:21;;;;;;;39.90;16.25;;;10.10;99.90;;;;;;5006488;28;20042;-79
2021/04/22 07:00:46;;;;;;;39.15;16.25;;;10.00;99.90;;;;;;5022098;28;20034;-80
2021/04/22 07:03:12;;;;;;;32.65;16.77;;;10.10;99.90;;;;;;5014464;28;20056;-81
2021/04/22 07:05:38;;;;;;;31.73;15.55;;;10.10;99.60;;;;;;5008233;28;20054;-86
2021/04/22 07:08:06;;;;;;;34.33;16.48;;;10.20;98.70;;;;;;5002583;28;20178;-81
2021/04/22 07:10:31;;;;;;;33.70;16.17;;;10.30;98.30;;;;;;5007022;28;20041;-80
2021/04/22 07:12:58;;;;;;;33.45;16.30;;;10.30;97.00;;;;;;5009586;28;20038;-79
2021/04/22 07:15:24;;;;;;;34.28;16.60;;;10.30;96.80;;;;;;5002697;28;20784;-79
2021/04/22 07:17:51;;;;;;;37.33;16.55;;;10.40;97.10;;;;;;5004748;28;20041;-78
2021/04/22 07:20:20;;;;;;;39.92;16.42;;;10.60;96.20;;;;;;5004528;28;20037;-79
2021/04/22 07:22:46;;;;;;;35.30;15.25;;;10.60;95.10;;;;;;5009743;28;21723;-79
2021/04/22 07:25:13;;;;;;;36.70;14.52;;;10.70;94.00;;;;;;5010289;28;20069;-79
2021/04/22 07:27:39;;;;;;;35.47;14.18;;;10.50;93.40;;;;;;5015097;28;20042;-79
2021/04/22 07:30:08;;;;;;;34.40;15.70;;;10.70;93.70;;;;;;5017236;28;20045;-79
2021/04/22 07:32:34;;;;;;;37.63;14.95;;;10.80;93.00;;;;;;5014520;28;20086;-78
2021/04/22 07:35:00;;;;;;;38.60;16.25;;;10.80;91.80;;;;;;5025069;28;20053;-79
2021/04/22 07:37:26;;;;;;;30.30;16.33;;;10.90;91.20;;;;;;5020800;28;20034;-79
2021/04/22 07:39:52;;;;;;;31.23;15.63;;;10.70;90.90;;;;;;5016346;28;20046;-79
2021/04/22 07:42:18;;;;;;;31.85;14.50;;;10.90;91.60;;;;;;5022719;28;20018;-80
2021/04/22 07:44:47;;;;;;;39.13;15.55;;;11.10;91.30;;;;;;5023041;28;20034;-79
2021/04/22 07:47:13;;;;;;;34.03;15.98;;;11.10;89.80;;;;;;5017591;28;20029;-78
2021/04/22 07:49:39;;;;;;;34.90;15.23;;;11.00;88.60;;;;;;5015943;28;20038;-79
2021/04/22 07:52:05;;;;;;;34.25;15.77;;;11.00;90.10;;;;;;5012838;28;20066;-80
2021/04/22 07:54:31;;;;;;;30.00;14.52;;;11.10;88.20;;;;;;5013294;28;20085;-80
2021/04/22 07:56:56;;;;;;;37.63;14.23;;;11.30;87.00;;;;;;5015671;28;20049;-81
2021/04/22 07:59:22;;;;;;;36.58;14.65;;;11.30;85.30;;;;;;5010030;28;20038;-81
2021/04/22 08:01:47;;;;;;;31.45;13.07;;;11.40;84.70;;;;;;5014183;28;20038;-78
2021/04/22 08:04:13;;;;;;;26.48;12.88;;;11.50;83.20;;;;;;5007627;28;20149;-79
2021/04/22 08:06:38;;;;;;;24.33;11.23;;;11.60;82.30;;;;;;5011105;28;20061;-82
2021/04/22 08:09:04;;;;;;;27.30;12.45;;;11.30;78.70;;;;;;5012766;28;20068;-81
2021/04/22 08:11:30;;;;;;;33.13;12.40;;;11.60;80.30;;;;;;5010453;28;20041;-81
2021/04/22 08:13:56;;;;;;;35.95;11.30;;;11.70;79.10;;;;;;5015642;28;20034;-81
2021/04/22 08:16:22;;;;;;;23.23;11.13;;;11.70;77.10;;;;;;5012384;28;21084;-81
2021/04/22 08:18:48;;;;;;;34.65;13.40;;;12.10;76.90;;;;;;5028139;28;20089;-79
2021/04/22 08:21:14;;;;;;;25.23;12.07;;;12.10;74.80;;;;;;5013877;28;20034;-80
2021/04/22 08:23:40;;;;;;;29.10;12.35;;;12.40;75.00;;;;;;5009888;28;20048;-79
2021/04/22 08:26:09;;;;;;;26.55;11.13;;;12.50;71.40;;;;;;5012151;28;20030;-80
2021/04/22 08:28:35;;;;;;;24.70;9.95;;;12.70;70.50;;;;;;5007047;28;20042;-79
2021/04/22 08:31:06;;;;;;;22.10;9.88;;;13.10;66.10;;;;;;5025651;28;20029;-79
2021/04/22 08:33:34;;;;;;;24.20;10.00;;;13.20;65.40;;;;;;5012842;28;20030;-79
2021/04/22 08:36:00;;;;;;;22.58;10.68;;;13.30;63.90;;;;;;5014491;28;20046;-80
2021/04/22 08:38:26;;;;;;;24.75;11.15;;;13.40;64.40;;;;;;5007015;28;20046;-78
2021/04/22 08:40:53;;;;;;;29.95;10.82;;;13.40;65.20;;;;;;5015365;28;20092;-81
2021/04/22 08:43:19;;;;;;;35.22;11.02;;;13.10;63.50;;;;;;5023151;28;20045;-82
2021/04/22 08:45:46;;;;;;;27.63;10.65;;;12.40;65.50;;;;;;5016655;28;20349;-78
2021/04/22 08:48:12;;;;;;;23.83;9.77;;;12.20;65.30;;;;;;5017711;28;20121;-82
2021/04/22 08:50:42;;;;;;;29.60;11.00;;;12.40;66.40;;;;;;5015609;28;20049;-82
2021/04/22 08:53:12;;;;;;;29.70;10.90;;;12.60;66.30;;;;;;5010432;28;20085;-82
2021/04/22 08:55:38;;;;;;;24.20;10.35;;;13.20;64.90;;;;;;5016910;28;20119;-80
2021/04/22 08:58:06;;;;;;;33.35;10.90;;;13.50;62.70;;;;;;5013803;28;20834;-80
2021/04/22 09:00:42;;;;;;;23.70;9.77;;;13.40;60.60;;;;;;5006551;28;20042;-80
2021/04/22 09:03:08;;;;;;;24.70;11.23;;;13.90;60.60;;;;;;5015399;28;20045;-79
2021/04/22 09:05:34;;;;;;;26.42;9.88;;;13.20;60.90;;;;;;5022312;28;20042;-80
2021/04/22 09:08:00;;;;;;;32.17;9.93;;;13.40;61.70;;;;;;5012670;28;20038;-81
2021/04/22 09:10:27;;;;;;;29.60;10.77;;;13.00;61.50;;;;;;5033320;28;20420;-80
2021/04/22 09:13:25;;;;;;;21.58;9.80;;;13.00;62.40;;;;;;5012002;28;20041;-79
2021/04/22 09:16:12;;;;;;;27.38;9.00;;;13.20;59.20;;;;;;4962904;28;20068;-81
2021/04/22 09:18:41;;;;;;;23.48;9.88;;;13.40;58.40;;;;;;5012265;28;20045;-81
2021/04/22 09:21:26;;;;;;;23.58;9.43;;;13.60;59.20;;;;;;5010379;28;20057;-82
2021/04/22 09:24:12;;;;;;;29.27;10.10;;;14.10;57.60;;;;;;5012858;28;20038;-82
2021/04/22 09:29:53;;;;;;;18.48;8.90;;;15.70;50.20;;;;;;4991669;28;20047;-78
2021/04/22 09:32:27;;;;;;;27.63;9.00;;;16.00;47.10;;;;;;4992869;28;20093;-81
2021/04/22 09:34:54;;;;;;;20.85;8.13;;;15.10;45.10;;;;;;5001850;28;20102;-80
2021/04/22 09:37:24;;;;;;;23.92;9.27;;;16.00;46.70;;;;;;5013527;28;20073;-80
2021/04/22 09:39:51;;;;;;;21.45;8.02;;;16.60;43.50;;;;;;5008950;28;20042;-81
2021/04/22 09:42:18;;;;;;;20.85;7.65;;;17.00;40.00;;;;;;5010737;28;20038;-79
2021/04/22 09:44:48;;;;;;;25.13;8.48;;;15.70;39.70;;;;;;5013754;28;20096;-79
2021/04/22 09:47:18;;;;;;;20.70;7.82;;;15.20;41.70;;;;;;5011429;28;20033;-80
2021/04/22 09:49:52;;;;;;;21.00;8.07;;;15.70;41.40;;;;;;5008109;28;20042;-80
2021/04/22 09:52:20;;;;;;;15.88;6.95;;;15.40;39.10;;;;;;5006573;28;20050;-81
2021/04/22 09:54:51;;;;;;;21.73;7.28;;;16.00;38.40;;;;;;5013027;28;20038;-82
2021/04/22 09:57:35;;;;;;;19.98;7.22;;;15.80;36.90;;;;;;5010085;28;20045;-81
2021/04/22 10:00:05;;;;;;;17.73;7.00;;;16.20;35.80;;;;;;5017196;28;20046;-80
2021/04/22 10:02:44;;;;;;;15.10;6.53;;;17.00;32.90;;;;;;5013640;28;20053;-80
2021/04/22 10:05:18;;;;;;;18.80;6.40;;;16.10;31.40;;;;;;5011213;28;20459;-79
2021/04/22 10:07:44;;;;;;;13.15;6.40;;;17.60;28.10;;;;;;5009288;28;20045;-84
2021/04/22 10:10:21;;;;;;;19.10;6.88;;;17.40;27.20;;;;;;5011767;28;20034;-81
2021/04/22 10:12:48;;;;;;;13.88;6.63;;;18.80;27.00;;;;;;5007770;28;20034;-82
2021/04/22 10:15:19;;;;;;;17.85;6.57;;;18.60;25.80;;;;;;5014000;28;20038;-81
2021/04/22 10:17:56;;;;;;;17.38;6.40;;;18.60;22.90;;;;;;5011117;28;20620;-83
2021/04/22 10:20:24;;;;;;;15.07;6.22;;;18.70;23.30;;;;;;5012332;28;20076;-82
2021/04/22 10:22:53;;;;;;;17.30;5.72;;;18.40;22.80;;;;;;5016772;28;20037;-80
2021/04/22 10:25:22;;;;;;;17.58;6.43;;;17.10;23.40;;;;;;5010194;28;20041;-81
2021/04/22 10:27:48;;;;;;;16.67;5.88;;;18.60;24.00;;;;;;5005097;28;20046;-80
2021/04/22 10:30:23;;;;;;;11.05;5.38;;;18.00;22.60;;;;;;5006226;28;20081;-81
2021/04/22 10:32:50;;;;;;;17.50;5.60;;;18.70;22.30;;;;;;5008062;28;20403;-82
2021/04/22 10:35:20;;;;;;;14.57;5.18;;;19.70;18.90;;;;;;5004111;28;20031;-80
2021/04/22 10:37:50;;;;;;;21.05;4.70;;;19.10;18.00;;;;;;5011560;28;20093;-81
2021/04/22 10:40:17;;;;;;;16.60;4.50;;;19.20;18.00;;;;;;5013866;28;20042;-81
2021/04/22 10:42:43;;;;;;;13.32;5.60;;;18.70;18.70;;;;;;5013634;28;20033;-80
2021/04/22 10:45:13;;;;;;;15.57;4.78;;;18.50;17.10;;;;;;5011259;28;20082;-81
2021/04/22 10:47:40;;;;;;;10.60;4.10;;;19.20;16.70;;;;;;5016906;28;20558;-81
2021/04/22 10:50:15;;;;;;;11.68;4.57;;;19.60;16.20;;;;;;5011489;28;20039;-82
2021/04/22 10:52:43;;;;;;;14.07;4.28;;;19.90;14.40;;;;;;5011926;28;20057;-82
2021/04/22 10:55:23;;;;;;;13.02;4.07;;;20.60;14.90;;;;;;5010972;28;20049;-84
2021/04/22 10:57:51;;;;;;;13.88;3.88;;;20.50;12.90;;;;;;5014133;28;20579;-82
2021/04/22 11:00:19;;;;;;;10.63;3.25;;;20.00;12.60;;;;;;5008464;28;20030;-82
2021/04/22 11:02:52;;;;;;;15.75;4.28;;;20.30;12.00;;;;;;5015842;28;20587;-82
2021/04/22 11:05:28;;;;;;;11.85;3.58;;;20.60;12.60;;;;;;5010138;28;20045;-82
2021/04/22 11:07:56;;;;;;;16.33;4.25;;;20.40;11.20;;;;;;5011083;28;20081;-81
2021/04/22 11:10:30;;;;;;;14.18;3.70;;;19.90;12.50;;;;;;5014434;28;20593;-81
2021/04/22 11:12:55;;;;;;;7.32;3.42;;;20.00;13.30;;;;;;5004772;28;20046;-80
2021/04/22 11:15:21;;;;;;;10.80;3.92;;;19.70;11.70;;;;;;5005310;28;20047;-81
2021/04/22 11:17:47;;;;;;;10.70;3.97;;;19.50;13.50;;;;;;5011645;28;20046;-82
2021/04/22 11:20:17;;;;;;;10.45;3.83;;;19.70;13.90;;;;;;5027646;28;20046;-82
2021/04/22 11:22:45;;;;;;;12.88;4.07;;;20.70;13.20;;;;;;5018710;28;20030;-81
2021/04/22 11:25:17;;;;;;;17.42;4.40;;;20.50;12.60;;;;;;5020941;28;20058;-82
2021/04/22 11:27:53;;;;;;;13.57;4.07;;;20.50;11.90;;;;;;5012722;28;20053;-82
2021/04/22 11:30:32;;;;;;;12.10;4.28;;;20.50;12.60;;;;;;5004747;28;20038;-81
2021/04/22 11:33:01;;;;;;;12.10;4.93;;;20.00;12.30;;;;;;5003332;28;21367;-82
2021/04/22 11:35:28;;;;;;;14.32;3.67;;;20.60;12.70;;;;;;5006482;28;20509;-82
2021/04/22 11:38:00;;;;;;;7.38;3.08;;;21.20;11.40;;;;;;5002872;28;20046;-82
2021/04/22 11:40:34;;;;;;;16.65;3.55;;;19.80;10.70;;;;;;5013475;28;20064;-81
2021/04/22 11:43:00;;;;;;;10.85;3.10;;;20.00;10.60;;;;;;5018249;28;20104;-79
2021/04/22 11:45:31;;;;;;;10.23;3.70;;;20.90;11.60;;;;;;5019850;28;20125;-81
2021/04/22 11:48:06;;;;;;;10.05;3.25;;;21.10;8.70;;;;;;5017359;28;20041;-82
2021/04/22 11:50:47;;;;;;;8.98;3.47;;;21.80;9.40;;;;;;5020481;28;20077;-81
2021/04/22 11:53:14;;;;;;;12.43;4.05;;;20.40;10.40;;;;;;5016167;28;20038;-81
2021/04/22 11:55:45;;;;;;;9.43;3.15;;;20.80;11.10;;;;;;5017579;28;20125;-81
2021/04/22 11:58:21;;;;;;;8.50;4.15;;;21.40;9.10;;;;;;5018145;28;20086;-81
2021/04/22 12:00:51;;;;;;;11.45;3.78;;;21.50;9.80;;;;;;5016356;28;20046;-81
2021/04/22 12:03:27;;;;;;;15.10;4.18;;;20.90;8.70;;;;;;5019852;28;20399;-80
2021/04/22 12:05:54;;;;;;;9.32;3.25;;;19.70;10.50;;;;;;5017246;28;20042;-81
2021/04/22 12:08:27;;;;;;;13.63;4.43;;;21.10;9.30;;;;;;5012355;28;20037;-82
2021/04/22 12:10:52;;;;;;;10.18;3.92;;;19.40;12.40;;;;;;5016464;28;20052;-81
2021/04/22 12:13:20;;;;;;;10.55;4.20;;;20.10;11.50;;;;;;5015466;28;20058;-81
2021/04/22 12:15:57;;;;;;;7.88;3.88;;;21.80;12.00;;;;;;5016148;28;20030;-81
2021/04/22 12:18:45;;;;;;;11.00;3.30;;;20.30;8.40;;;;;;5007426;28;20100;-82
2021/04/22 12:21:18;;;;;;;6.78;3.25;;;20.60;9.70;;;;;;5009171;28;20133;-83
2021/04/22 12:23:46;;;;;;;12.55;3.58;;;20.70;10.70;;;;;;5010000;28;20038;-82
2021/04/22 12:26:33;;;;;;;9.80;3.92;;;21.70;10.80;;;;;;5012210;28;20042;-82
2021/04/22 12:29:09;;;;;;;14.35;4.72;;;21.30;10.00;;;;;;5005794;28;20484;-81
2021/04/22 12:31:59;;;;;;;13.00;4.97;;;21.10;11.10;;;;;;5003264;28;20050;-81
2021/04/22 12:34:35;;;;;;;11.32;3.75;;;20.70;11.60;;;;;;5006509;28;20049;-82
2021/04/22 12:37:01;;;;;;;14.27;3.60;;;20.50;11.30;;;;;;5025217;28;20042;-82
2021/04/22 12:39:35;;;;;;;14.70;3.70;;;21.10;10.90;;;;;;5016609;28;20045;-82
2021/04/22 12:42:06;;;;;;;9.25;2.97;;;20.30;9.60;;;;;;5020918;28;20524;-84